PWSweather.com
Personal Weather Stations
Station Observations
IESRVJEREZ
Ies Fco. Romero Vargas, Jerez De La FronteraES 11408

Ies Fco. Romero VargasJerez De La FronteraES 11408

Lat: 36.67203, Lon: -6.129915

Elevation: 98

Station Type: FWS 20

http://www.iesromerovargas.net/estacion_meteorologica/Cumulus/web/

Latest ConditionsUpdated 5:00:02 PM GMT+01:01 Thursday, Mar 23, 2017
Currently Today's Max Today's Min Today's Average
Temperature 63.0°F17.2°C 63.0°F17.2°C 43.0°F6.1°C 53.2°F11.8°C
Dew Point 40.7°F4.8°C 42.3°F5.7°C 36.2°F2.3°C 39.6°F4.2°C
Winds 10.7 mph W17.2 kmh W 12.1 mph NW19.5 kmh NW - 4.6 mph 7.4 kmh
Wind Gusts 15.2 mph24.5 kmh 20.6 mph33.2 kmh - -
Humidity 40% 83% 40% 61%
Pressure 30.20 in1022.7 mb 30.25 in1024.4 mb 29.98 in1015.2 mb -
Precipitation - 0.01 in0.3 mm - -
Hour Temp Dew Point Humidity Winds Wind Gusts Pressure Precip Precip Rate Daily Precip Total
05:00 PM 63.0°F17.2°C 40.7°F4.8°C 40% 10.7 mph W17.2 kmh W 15.2 mph24.5 kmh 30.20 in1022.7 mb 0.00 in0.0 mm 0.00 in0.0 mm 0.01 in0.3 mm
04:45 PM 63.0°F17.2°C 40.7°F4.8°C 40% 10.7 mph W17.2 kmh W 15.2 mph24.5 kmh 30.21 in1023.0 mb 0.00 in0.0 mm 0.00 in0.0 mm 0.01 in0.3 mm
04:30 PM 63.0°F17.2°C 40.7°F4.8°C 40% 10.7 mph W17.2 kmh W 15.2 mph24.5 kmh 30.21 in1023.0 mb 0.00 in0.0 mm 0.00 in0.0 mm 0.01 in0.3 mm
04:15 PM 63.0°F17.2°C 40.7°F4.8°C 40% 10.7 mph W17.2 kmh W 15.2 mph24.5 kmh 30.21 in1023.0 mb 0.00 in0.0 mm 0.00 in0.0 mm 0.01 in0.3 mm
04:00 PM 63.0°F17.2°C 40.7°F4.8°C 40% 10.7 mph W17.2 kmh W 15.2 mph24.5 kmh 30.22 in1023.4 mb 0.00 in0.0 mm 0.00 in0.0 mm 0.01 in0.3 mm
03:45 PM 63.0°F17.2°C 40.7°F4.8°C 40% 10.7 mph W17.2 kmh W 15.2 mph24.5 kmh 30.21 in1023.0 mb 0.00 in0.0 mm 0.00 in0.0 mm 0.01 in0.3 mm
03:30 PM 63.0°F17.2°C 40.7°F4.8°C 42% 7.6 mph NW12.2 kmh NW 9.8 mph15.8 kmh 30.22 in1023.4 mb 0.00 in0.0 mm 0.00 in0.0 mm 0.01 in0.3 mm
03:15 PM 63.0°F17.2°C 40.7°F4.8°C 42% 7.6 mph NW12.2 kmh NW 9.8 mph15.8 kmh 30.22 in1023.4 mb 0.00 in0.0 mm 0.00 in0.0 mm 0.01 in0.3 mm
03:00 PM 63.0°F17.2°C 40.7°F4.8°C 42% 7.6 mph NW12.2 kmh NW 9.8 mph15.8 kmh 30.22 in1023.4 mb 0.00 in0.0 mm 0.00 in0.0 mm 0.01 in0.3 mm
02:45 PM 63.0°F17.2°C 40.7°F4.8°C 42% 7.6 mph W12.2 kmh W 14.5 mph23.3 kmh 30.22 in1023.4 mb 0.00 in0.0 mm 0.00 in0.0 mm 0.01 in0.3 mm
02:30 PM 63.0°F17.2°C 40.7°F4.8°C 43% 8.3 mph W13.4 kmh W 15.9 mph25.6 kmh 30.23 in1023.7 mb 0.00 in0.0 mm 0.00 in0.0 mm 0.01 in0.3 mm
02:15 PM 63.0°F17.2°C 40.7°F4.8°C 43% 12.1 mph NW19.5 kmh NW 19.7 mph31.7 kmh 30.23 in1023.7 mb 0.00 in0.0 mm 0.00 in0.0 mm 0.01 in0.3 mm
02:00 PM 63.0°F17.2°C 40.7°F4.8°C 44% 8.3 mph WSW13.4 kmh WSW 20.6 mph33.2 kmh 30.25 in1024.4 mb 0.00 in0.0 mm 0.00 in0.0 mm 0.01 in0.3 mm
01:45 PM 63.0°F17.2°C 40.7°F4.8°C 41% 8.3 mph WSW13.4 kmh WSW 12.1 mph19.5 kmh 30.24 in1024.0 mb 2.44 in62.0 mm 9.76 in247.9 mm 0.01 in0.3 mm
01:30 PM 63.0°F17.2°C 40.7°F4.8°C 42% 11.4 mph SW18.3 kmh SW 15.2 mph24.5 kmh 30.24 in1024.0 mb 0.00 in0.0 mm 0.00 in0.0 mm 0.01 in0.3 mm
01:15 PM 63.0°F17.2°C 40.7°F4.8°C 42% 11.4 mph SW18.3 kmh SW 15.2 mph24.5 kmh 30.25 in1024.4 mb 0.00 in0.0 mm 0.00 in0.0 mm 0.01 in0.3 mm
01:00 PM 63.0°F17.2°C 40.7°F4.8°C 43% 6.9 mph SW11.1 kmh SW 10.7 mph17.2 kmh 30.25 in1024.4 mb 0.00 in0.0 mm 0.00 in0.0 mm 0.01 in0.3 mm
12:30 PM 57.9°F14.4°C 36.2°F2.3°C 44% 9.8 mph NW15.8 kmh NW 15.2 mph24.5 kmh 29.98 in1015.2 mb 0.00 in0.0 mm 0.00 in0.0 mm 0.01 in0.3 mm
12:15 PM 56.8°F13.8°C 36.3°F2.4°C 46% 7.6 mph NW12.2 kmh NW 17.4 mph28.0 kmh 29.98 in1015.2 mb 0.00 in0.0 mm 0.00 in0.0 mm 0.01 in0.3 mm
12:00 PM 57.9°F14.4°C 37.8°F3.2°C 47% 6.9 mph WNW11.1 kmh WNW 13.6 mph21.9 kmh 29.98 in1015.2 mb 0.00 in0.0 mm 0.00 in0.0 mm 0.01 in0.3 mm
11:45 AM 58.1°F14.5°C 39.6°F4.2°C 50% 6.0 mph NW9.7 kmh NW 13.0 mph20.9 kmh 29.98 in1015.2 mb 0.00 in0.0 mm 0.00 in0.0 mm 0.01 in0.3 mm
11:30 AM 57.2°F14.0°C 39.7°F4.3°C 52% 6.0 mph NW9.7 kmh NW 12.1 mph19.5 kmh 29.98 in1015.2 mb 0.00 in0.0 mm 0.00 in0.0 mm 0.01 in0.3 mm
11:15 AM 55.8°F13.2°C 39.4°F4.1°C 54% 6.0 mph WNW9.7 kmh WNW 13.0 mph20.9 kmh 29.99 in1015.6 mb 0.00 in0.0 mm 0.00 in0.0 mm 0.01 in0.3 mm
11:00 AM 55.8°F13.2°C 40.3°F4.6°C 56% 3.8 mph NW6.1 kmh NW 10.7 mph17.2 kmh 29.99 in1015.6 mb 0.00 in0.0 mm 0.00 in0.0 mm 0.01 in0.3 mm
10:45 AM 56.1°F13.4°C 40.2°F4.6°C 55% 2.2 mph W3.5 kmh W 9.8 mph15.8 kmh 30.00 in1015.9 mb 0.00 in0.0 mm 0.00 in0.0 mm 0.01 in0.3 mm
10:30 AM 57.0°F13.9°C 41.5°F5.3°C 56% 1.6 mph SE2.6 kmh SE 4.5 mph7.2 kmh 30.00 in1015.9 mb 0.00 in0.0 mm 0.00 in0.0 mm 0.01 in0.3 mm
10:15 AM 55.2°F12.9°C 39.8°F4.3°C 56% 0.7 mph SE1.1 kmh SE 5.4 mph8.7 kmh 30.01 in1016.3 mb 0.00 in0.0 mm 0.00 in0.0 mm 0.01 in0.3 mm
10:00 AM 56.5°F13.6°C 41.0°F5.0°C 56% 1.6 mph SSE2.6 kmh SSE 3.8 mph6.1 kmh 30.01 in1016.3 mb 0.00 in0.0 mm 0.00 in0.0 mm 0.01 in0.3 mm
09:45 AM 52.9°F11.6°C 40.2°F4.6°C 62% 0.7 mph SSE1.1 kmh SSE 3.1 mph5.0 kmh 30.01 in1016.3 mb 0.00 in0.0 mm 0.00 in0.0 mm 0.01 in0.3 mm
09:30 AM 52.5°F11.4°C 40.7°F4.8°C 64% 3.8 mph SE6.1 kmh SE 5.4 mph8.7 kmh 30.00 in1015.9 mb 0.00 in0.0 mm 0.00 in0.0 mm 0.01 in0.3 mm
09:15 AM 52.2°F11.2°C 40.0°F4.4°C 63% 0.7 mph SSE1.1 kmh SSE 4.5 mph7.2 kmh 30.01 in1016.3 mb 0.00 in0.0 mm 0.00 in0.0 mm 0.01 in0.3 mm
09:00 AM 51.1°F10.6°C 38.9°F3.8°C 63% 0.7 mph SE1.1 kmh SE 4.5 mph7.2 kmh 30.01 in1016.3 mb 0.00 in0.0 mm 0.00 in0.0 mm 0.01 in0.3 mm
08:45 AM 50.9°F10.5°C 40.7°F4.8°C 68% 0.7 mph SSE1.1 kmh SSE 3.1 mph5.0 kmh 30.00 in1015.9 mb 0.00 in0.0 mm 0.00 in0.0 mm 0.01 in0.3 mm
08:30 AM 48.6°F9.2°C 42.0°F5.6°C 78% 2.2 mph SSE3.5 kmh SSE 3.1 mph5.0 kmh 30.00 in1015.9 mb 0.00 in0.0 mm 0.00 in0.0 mm 0.01 in0.3 mm
08:15 AM 45.1°F7.3°C 39.3°F4.1°C 80% 2.2 mph SSE3.5 kmh SSE 5.4 mph8.7 kmh 30.01 in1016.3 mb 0.00 in0.0 mm 0.00 in0.0 mm 0.01 in0.3 mm
08:00 AM 45.0°F7.2°C 39.5°F4.2°C 81% 3.1 mph S5.0 kmh S 3.8 mph6.1 kmh 30.00 in1015.9 mb 0.00 in0.0 mm 0.00 in0.0 mm 0.01 in0.3 mm
07:45 AM 44.6°F7.0°C 39.8°F4.3°C 83% 2.2 mph SE3.5 kmh SE 4.5 mph7.2 kmh 30.00 in1015.9 mb 0.00 in0.0 mm 0.00 in0.0 mm 0.01 in0.3 mm
07:30 AM 44.1°F6.7°C 39.2°F4.0°C 83% 1.6 mph E2.6 kmh E 3.8 mph6.1 kmh 30.00 in1015.9 mb 0.00 in0.0 mm 0.00 in0.0 mm 0.01 in0.3 mm
07:15 AM 43.0°F6.1°C 37.6°F3.1°C 81% Calm Calm 0.7 mph1.1 kmh 30.00 in1015.9 mb 0.00 in0.0 mm 0.00 in0.0 mm 0.01 in0.3 mm
07:00 AM 43.3°F6.3°C 37.3°F2.9°C 79% 0.7 mph W1.1 kmh W 1.6 mph2.6 kmh 30.00 in1015.9 mb 0.00 in0.0 mm 0.00 in0.0 mm 0.01 in0.3 mm
06:45 AM 44.2°F6.8°C 37.8°F3.2°C 78% Calm Calm 1.6 mph2.6 kmh 30.00 in1015.9 mb 0.00 in0.0 mm 0.00 in0.0 mm 0.01 in0.3 mm
06:30 AM 45.0°F7.2°C 37.2°F2.9°C 74% 1.6 mph SSW2.6 kmh SSW 3.1 mph5.0 kmh 30.00 in1015.9 mb 0.00 in0.0 mm 0.00 in0.0 mm 0.01 in0.3 mm
06:15 AM 46.0°F7.8°C 37.5°F3.1°C 72% 0.7 mph E1.1 kmh E 2.2 mph3.5 kmh 30.00 in1015.9 mb 0.00 in0.0 mm 0.00 in0.0 mm 0.01 in0.3 mm
06:00 AM 46.0°F7.8°C 37.5°F3.1°C 72% Calm Calm 2.2 mph3.5 kmh 30.00 in1015.9 mb 0.00 in0.0 mm 0.00 in0.0 mm 0.01 in0.3 mm
05:45 AM 46.0°F7.8°C 37.5°F3.1°C 72% 0.7 mph NE1.1 kmh NE 3.8 mph6.1 kmh 29.99 in1015.6 mb 0.00 in0.0 mm 0.00 in0.0 mm 0.01 in0.3 mm
05:30 AM 46.0°F7.8°C 37.9°F3.3°C 73% 3.1 mph N5.0 kmh N 5.4 mph8.7 kmh 30.00 in1015.9 mb 0.00 in0.0 mm 0.00 in0.0 mm 0.01 in0.3 mm
05:15 AM 46.0°F7.8°C 38.2°F3.4°C 74% 3.8 mph N6.1 kmh N 5.4 mph8.7 kmh 30.00 in1015.9 mb 0.00 in0.0 mm 0.00 in0.0 mm 0.01 in0.3 mm
05:00 AM 46.0°F7.8°C 37.9°F3.3°C 73% 2.2 mph NW3.5 kmh NW 5.4 mph8.7 kmh 29.99 in1015.6 mb 0.00 in0.0 mm 0.00 in0.0 mm 0.01 in0.3 mm
04:45 AM 46.8°F8.2°C 38.9°F3.8°C 74% 2.2 mph N3.5 kmh N 6.0 mph9.7 kmh 30.00 in1015.9 mb 0.00 in0.0 mm 0.00 in0.0 mm 0.01 in0.3 mm
04:30 AM 46.8°F8.2°C 38.9°F3.8°C 74% 4.5 mph NW7.2 kmh NW 7.6 mph12.2 kmh 30.01 in1016.3 mb 0.00 in0.0 mm 0.00 in0.0 mm 0.01 in0.3 mm
04:15 AM 46.8°F8.2°C 38.9°F3.8°C 74% 3.1 mph NW5.0 kmh NW 8.3 mph13.4 kmh 30.01 in1016.3 mb 0.00 in0.0 mm 0.00 in0.0 mm 0.01 in0.3 mm
04:00 AM 46.9°F8.3°C 39.1°F3.9°C 74% 3.8 mph NW6.1 kmh NW 8.3 mph13.4 kmh 30.02 in1016.6 mb 0.00 in0.0 mm 0.00 in0.0 mm 0.01 in0.3 mm
03:45 AM 46.9°F8.3°C 38.7°F3.7°C 73% 3.8 mph NW6.1 kmh NW 7.6 mph12.2 kmh 30.02 in1016.6 mb 0.00 in0.0 mm 0.00 in0.0 mm 0.01 in0.3 mm
03:30 AM 46.9°F8.3°C 38.7°F3.7°C 73% 3.8 mph NW6.1 kmh NW 5.4 mph8.7 kmh 30.02 in1016.6 mb 0.01 in0.3 mm 0.00 in0.0 mm 0.01 in0.3 mm
03:15 AM 47.5°F8.6°C 38.9°F3.8°C 72% 2.2 mph NNW3.5 kmh NNW 9.2 mph14.8 kmh 30.02 in1016.6 mb 0.01 in0.3 mm 0.00 in0.0 mm 0.01 in0.3 mm
03:00 AM 47.8°F8.8°C 38.9°F3.8°C 71% 3.8 mph NW6.1 kmh NW 9.2 mph14.8 kmh 30.03 in1016.9 mb 0.01 in0.3 mm 0.01 in0.3 mm 0.01 in0.3 mm
02:45 AM 48.2°F9.0°C 39.2°F4.0°C 71% 3.1 mph NW5.0 kmh NW 8.3 mph13.4 kmh 30.03 in1016.9 mb 0.00 in0.0 mm 0.00 in0.0 mm 0.00 in0.0 mm
02:30 AM 48.7°F9.3°C 39.4°F4.1°C 70% 2.2 mph WNW3.5 kmh WNW 7.6 mph12.2 kmh 30.03 in1016.9 mb 0.00 in0.0 mm 0.00 in0.0 mm 0.00 in0.0 mm
02:15 AM 49.3°F9.6°C 39.2°F4.0°C 68% 2.2 mph N3.5 kmh N 11.4 mph18.3 kmh 30.04 in1017.3 mb 0.00 in0.0 mm 0.00 in0.0 mm 0.00 in0.0 mm
02:00 AM 49.5°F9.7°C 39.3°F4.1°C 68% 8.3 mph NNW13.4 kmh NNW 11.4 mph18.3 kmh 30.04 in1017.3 mb 0.00 in0.0 mm 0.00 in0.0 mm 0.00 in0.0 mm
01:45 AM 49.8°F9.9°C 39.7°F4.3°C 68% 5.4 mph NW8.7 kmh NW 9.2 mph14.8 kmh 30.04 in1017.3 mb 0.00 in0.0 mm 0.00 in0.0 mm 0.00 in0.0 mm
01:30 AM 50.4°F10.2°C 39.4°F4.1°C 66% 2.2 mph NW3.5 kmh NW 13.0 mph20.9 kmh 30.04 in1017.3 mb 0.00 in0.0 mm 0.00 in0.0 mm 0.00 in0.0 mm
01:15 AM 50.5°F10.3°C 39.6°F4.2°C 66% 3.1 mph NW5.0 kmh NW 11.4 mph18.3 kmh 30.04 in1017.3 mb 0.00 in0.0 mm 0.00 in0.0 mm 0.00 in0.0 mm
01:00 AM 50.9°F10.5°C 39.6°F4.2°C 65% 3.8 mph NW6.1 kmh NW 8.3 mph13.4 kmh 30.04 in1017.3 mb 0.00 in0.0 mm 0.00 in0.0 mm 0.00 in0.0 mm
12:45 AM 51.4°F10.8°C 40.1°F4.5°C 65% 2.2 mph NW3.5 kmh NW 10.7 mph17.2 kmh 30.05 in1017.6 mb 0.00 in0.0 mm 0.00 in0.0 mm 0.00 in0.0 mm
12:30 AM 52.0°F11.1°C 41.4°F5.2°C 67% 3.1 mph NW5.0 kmh NW 13.0 mph20.9 kmh 30.05 in1017.6 mb 0.00 in0.0 mm 0.00 in0.0 mm 0.00 in0.0 mm
12:15 AM 52.5°F11.4°C 42.3°F5.7°C 68% 2.2 mph NW3.5 kmh NW 8.3 mph13.4 kmh 30.05 in1017.6 mb 0.00 in0.0 mm 0.00 in0.0 mm 0.00 in0.0 mm
12:00 AM 52.9°F11.6°C 42.2°F5.7°C 67% 3.1 mph NW5.0 kmh NW 11.4 mph18.3 kmh 30.05 in1017.6 mb 0.00 in0.0 mm 0.00 in0.0 mm 0.00 in0.0 mm